sensor_id;sensor_type;location;lat;lon;timestamp;P1;durP1;ratioP1;P2;durP2;ratioP2
30370;SDS011;17164;48.590;11.410;2023-06-26T00:02:13;8.30;;;6.07;;
30370;SDS011;17164;48.590;11.410;2023-06-26T00:04:39;9.63;;;6.20;;
30370;SDS011;17164;48.590;11.410;2023-06-26T00:07:05;9.10;;;6.07;;
30370;SDS011;17164;48.590;11.410;2023-06-26T00:09:30;8.17;;;5.60;;
30370;SDS011;17164;48.590;11.410;2023-06-26T00:11:56;9.77;;;6.10;;
30370;SDS011;17164;48.590;11.410;2023-06-26T00:14:22;7.20;;;5.80;;
30370;SDS011;17164;48.590;11.410;2023-06-26T00:16:48;10.43;;;6.77;;
30370;SDS011;17164;48.590;11.410;2023-06-26T00:19:16;9.63;;;6.37;;
30370;SDS011;17164;48.590;11.410;2023-06-26T00:21:42;9.53;;;6.40;;
30370;SDS011;17164;48.590;11.410;2023-06-26T00:24:13;9.60;;;6.70;;
30370;SDS011;17164;48.590;11.410;2023-06-26T00:26:39;9.30;;;6.87;;
30370;SDS011;17164;48.590;11.410;2023-06-26T00:29:05;9.07;;;6.83;;
30370;SDS011;17164;48.590;11.410;2023-06-26T00:31:31;8.60;;;6.37;;
30370;SDS011;17164;48.590;11.410;2023-06-26T00:33:56;10.57;;;6.70;;
30370;SDS011;17164;48.590;11.410;2023-06-26T00:36:22;8.30;;;6.00;;
30370;SDS011;17164;48.590;11.410;2023-06-26T00:38:48;12.60;;;6.20;;
30370;SDS011;17164;48.590;11.410;2023-06-26T00:41:14;8.00;;;6.27;;
30370;SDS011;17164;48.590;11.410;2023-06-26T00:43:40;9.50;;;6.53;;
30370;SDS011;17164;48.590;11.410;2023-06-26T00:46:08;8.83;;;6.63;;
30370;SDS011;17164;48.590;11.410;2023-06-26T00:48:34;8.50;;;6.30;;
30370;SDS011;17164;48.590;11.410;2023-06-26T00:51:00;8.07;;;6.00;;
30370;SDS011;17164;48.590;11.410;2023-06-26T00:53:27;8.40;;;6.03;;
30370;SDS011;17164;48.590;11.410;2023-06-26T00:55:53;9.00;;;6.37;;
30370;SDS011;17164;48.590;11.410;2023-06-26T00:58:19;9.23;;;6.23;;
30370;SDS011;17164;48.590;11.410;2023-06-26T01:00:48;7.53;;;5.73;;
30370;SDS011;17164;48.590;11.410;2023-06-26T01:03:15;8.63;;;6.27;;
30370;SDS011;17164;48.590;11.410;2023-06-26T01:05:40;7.40;;;5.37;;
30370;SDS011;17164;48.590;11.410;2023-06-26T01:08:11;9.07;;;6.67;;
30370;SDS011;17164;48.590;11.410;2023-06-26T01:10:37;9.43;;;6.27;;
30370;SDS011;17164;48.590;11.410;2023-06-26T01:13:03;8.00;;;5.87;;
30370;SDS011;17164;48.590;11.410;2023-06-26T01:15:29;11.70;;;6.63;;
30370;SDS011;17164;48.590;11.410;2023-06-26T01:17:55;9.27;;;5.67;;
30370;SDS011;17164;48.590;11.410;2023-06-26T01:20:24;13.20;;;6.17;;
30370;SDS011;17164;48.590;11.410;2023-06-26T01:26:20;9.37;;;6.20;;
30370;SDS011;17164;48.590;11.410;2023-06-26T01:28:26;9.70;;;6.47;;
30370;SDS011;17164;48.590;11.410;2023-06-26T01:30:53;10.97;;;7.23;;
30370;SDS011;17164;48.590;11.410;2023-06-26T01:33:19;9.57;;;5.83;;
30370;SDS011;17164;48.590;11.410;2023-06-26T01:35:45;9.83;;;6.83;;
30370;SDS011;17164;48.590;11.410;2023-06-26T01:38:20;8.70;;;6.13;;
30370;SDS011;17164;48.590;11.410;2023-06-26T01:40:48;9.33;;;6.63;;
30370;SDS011;17164;48.590;11.410;2023-06-26T01:43:24;9.93;;;6.30;;
30370;SDS011;17164;48.590;11.410;2023-06-26T01:46:04;12.03;;;5.93;;
30370;SDS011;17164;48.590;11.410;2023-06-26T01:48:38;8.87;;;6.60;;
30370;SDS011;17164;48.590;11.410;2023-06-26T01:51:10;8.87;;;6.57;;
30370;SDS011;17164;48.590;11.410;2023-06-26T01:53:41;10.30;;;5.90;;
30370;SDS011;17164;48.590;11.410;2023-06-26T01:56:13;9.20;;;6.60;;
30370;SDS011;17164;48.590;11.410;2023-06-26T01:58:41;12.10;;;6.60;;
30370;SDS011;17164;48.590;11.410;2023-06-26T02:01:10;9.37;;;5.97;;
30370;SDS011;17164;48.590;11.410;2023-06-26T02:03:37;9.23;;;6.33;;
30370;SDS011;17164;48.590;11.410;2023-06-26T02:06:02;9.10;;;6.17;;
30370;SDS011;17164;48.590;11.410;2023-06-26T02:08:28;9.27;;;6.10;;
30370;SDS011;17164;48.590;11.410;2023-06-26T02:10:54;9.27;;;6.33;;
30370;SDS011;17164;48.590;11.410;2023-06-26T02:13:19;8.90;;;6.40;;
30370;SDS011;17164;48.590;11.410;2023-06-26T02:15:45;10.03;;;6.30;;
30370;SDS011;17164;48.590;11.410;2023-06-26T02:18:10;9.37;;;6.70;;
30370;SDS011;17164;48.590;11.410;2023-06-26T02:20:36;8.63;;;6.00;;
30370;SDS011;17164;48.590;11.410;2023-06-26T02:23:01;9.50;;;6.63;;
30370;SDS011;17164;48.590;11.410;2023-06-26T02:25:27;10.13;;;6.07;;
30370;SDS011;17164;48.590;11.410;2023-06-26T02:27:53;10.10;;;6.50;;
30370;SDS011;17164;48.590;11.410;2023-06-26T02:30:18;10.53;;;6.23;;
30370;SDS011;17164;48.590;11.410;2023-06-26T02:32:44;9.83;;;6.27;;
30370;SDS011;17164;48.590;11.410;2023-06-26T02:35:10;10.37;;;7.30;;
30370;SDS011;17164;48.590;11.410;2023-06-26T02:37:35;11.00;;;6.80;;
30370;SDS011;17164;48.590;11.410;2023-06-26T02:40:01;9.60;;;6.77;;
30370;SDS011;17164;48.590;11.410;2023-06-26T02:42:28;12.50;;;6.87;;
30370;SDS011;17164;48.590;11.410;2023-06-26T02:44:55;10.13;;;7.60;;
30370;SDS011;17164;48.590;11.410;2023-06-26T02:47:20;12.87;;;6.47;;
30370;SDS011;17164;48.590;11.410;2023-06-26T02:49:46;10.20;;;7.13;;
30370;SDS011;17164;48.590;11.410;2023-06-26T02:52:11;12.63;;;7.30;;
30370;SDS011;17164;48.590;11.410;2023-06-26T02:54:37;8.73;;;6.50;;
30370;SDS011;17164;48.590;11.410;2023-06-26T02:57:02;10.67;;;6.83;;
30370;SDS011;17164;48.590;11.410;2023-06-26T02:59:28;8.80;;;6.37;;
30370;SDS011;17164;48.590;11.410;2023-06-26T03:01:54;9.43;;;6.83;;
30370;SDS011;17164;48.590;11.410;2023-06-26T03:04:19;11.27;;;6.73;;
30370;SDS011;17164;48.590;11.410;2023-06-26T03:06:46;12.13;;;7.37;;
30370;SDS011;17164;48.590;11.410;2023-06-26T03:09:12;10.63;;;6.67;;
30370;SDS011;17164;48.590;11.410;2023-06-26T03:11:37;10.67;;;6.23;;
30370;SDS011;17164;48.590;11.410;2023-06-26T03:14:03;8.80;;;6.20;;
30370;SDS011;17164;48.590;11.410;2023-06-26T03:16:29;12.77;;;6.53;;
30370;SDS011;17164;48.590;11.410;2023-06-26T03:18:54;9.87;;;5.97;;
30370;SDS011;17164;48.590;11.410;2023-06-26T03:21:20;9.13;;;6.60;;
30370;SDS011;17164;48.590;11.410;2023-06-26T03:23:45;10.57;;;6.83;;
30370;SDS011;17164;48.590;11.410;2023-06-26T03:26:11;12.33;;;6.80;;
30370;SDS011;17164;48.590;11.410;2023-06-26T03:28:39;10.00;;;6.83;;
30370;SDS011;17164;48.590;11.410;2023-06-26T03:31:05;11.00;;;6.80;;
30370;SDS011;17164;48.590;11.410;2023-06-26T03:33:30;10.87;;;6.70;;
30370;SDS011;17164;48.590;11.410;2023-06-26T03:35:56;10.57;;;6.40;;
30370;SDS011;17164;48.590;11.410;2023-06-26T03:38:22;10.90;;;6.63;;
30370;SDS011;17164;48.590;11.410;2023-06-26T03:40:49;10.17;;;6.60;;
30370;SDS011;17164;48.590;11.410;2023-06-26T03:43:14;12.40;;;6.63;;
30370;SDS011;17164;48.590;11.410;2023-06-26T03:45:40;10.80;;;6.50;;
30370;SDS011;17164;48.590;11.410;2023-06-26T03:48:05;10.80;;;6.47;;
30370;SDS011;17164;48.590;11.410;2023-06-26T03:50:33;9.40;;;7.03;;
30370;SDS011;17164;48.590;11.410;2023-06-26T03:52:58;8.83;;;6.40;;
30370;SDS011;17164;48.590;11.410;2023-06-26T03:55:24;12.37;;;7.17;;
30370;SDS011;17164;48.590;11.410;2023-06-26T03:57:50;9.83;;;7.00;;
30370;SDS011;17164;48.590;11.410;2023-06-26T04:00:16;9.83;;;6.63;;
30370;SDS011;17164;48.590;11.410;2023-06-26T04:02:41;9.90;;;6.70;;
30370;SDS011;17164;48.590;11.410;2023-06-26T04:05:07;9.87;;;6.57;;
30370;SDS011;17164;48.590;11.410;2023-06-26T04:07:33;9.70;;;6.90;;
30370;SDS011;17164;48.590;11.410;2023-06-26T04:10:00;10.87;;;7.30;;
30370;SDS011;17164;48.590;11.410;2023-06-26T04:12:26;10.67;;;6.43;;
30370;SDS011;17164;48.590;11.410;2023-06-26T04:14:52;9.10;;;6.47;;
30370;SDS011;17164;48.590;11.410;2023-06-26T04:17:17;10.33;;;7.33;;
30370;SDS011;17164;48.590;11.410;2023-06-26T04:19:43;14.10;;;7.03;;
30370;SDS011;17164;48.590;11.410;2023-06-26T04:22:08;9.73;;;6.83;;
30370;SDS011;17164;48.590;11.410;2023-06-26T04:24:34;10.27;;;7.53;;
30370;SDS011;17164;48.590;11.410;2023-06-26T04:27:00;11.80;;;7.80;;
30370;SDS011;17164;48.590;11.410;2023-06-26T04:29:25;12.10;;;6.73;;
30370;SDS011;17164;48.590;11.410;2023-06-26T04:31:52;13.30;;;8.07;;
30370;SDS011;17164;48.590;11.410;2023-06-26T04:34:24;14.10;;;7.67;;
30370;SDS011;17164;48.590;11.410;2023-06-26T04:36:50;10.57;;;8.23;;
30370;SDS011;17164;48.590;11.410;2023-06-26T04:39:15;11.60;;;7.90;;
30370;SDS011;17164;48.590;11.410;2023-06-26T04:41:41;13.87;;;8.37;;
30370;SDS011;17164;48.590;11.410;2023-06-26T04:44:07;11.90;;;7.87;;
30370;SDS011;17164;48.590;11.410;2023-06-26T04:46:32;12.00;;;8.20;;
30370;SDS011;17164;48.590;11.410;2023-06-26T04:48:58;13.73;;;8.40;;
30370;SDS011;17164;48.590;11.410;2023-06-26T04:51:26;12.73;;;9.27;;
30370;SDS011;17164;48.590;11.410;2023-06-26T04:53:53;13.87;;;9.33;;
30370;SDS011;17164;48.590;11.410;2023-06-26T04:56:19;11.63;;;8.53;;
30370;SDS011;17164;48.590;11.410;2023-06-26T04:58:45;13.43;;;8.50;;
30370;SDS011;17164;48.590;11.410;2023-06-26T05:01:10;12.77;;;8.53;;
30370;SDS011;17164;48.590;11.410;2023-06-26T05:03:38;12.23;;;8.13;;
30370;SDS011;17164;48.590;11.410;2023-06-26T05:06:04;12.17;;;8.40;;
30370;SDS011;17164;48.590;11.410;2023-06-26T05:08:29;11.43;;;9.40;;
30370;SDS011;17164;48.590;11.410;2023-06-26T05:10:55;12.60;;;9.13;;
30370;SDS011;17164;48.590;11.410;2023-06-26T05:13:24;12.30;;;8.90;;
30370;SDS011;17164;48.590;11.410;2023-06-26T05:15:51;13.53;;;8.87;;
30370;SDS011;17164;48.590;11.410;2023-06-26T05:18:17;13.63;;;8.10;;
30370;SDS011;17164;48.590;11.410;2023-06-26T05:20:44;11.27;;;8.70;;
30370;SDS011;17164;48.590;11.410;2023-06-26T05:23:12;12.03;;;9.07;;
30370;SDS011;17164;48.590;11.410;2023-06-26T05:25:38;12.20;;;8.97;;
30370;SDS011;17164;48.590;11.410;2023-06-26T05:28:04;12.40;;;8.37;;
30370;SDS011;17164;48.590;11.410;2023-06-26T05:30:31;12.00;;;8.00;;
30370;SDS011;17164;48.590;11.410;2023-06-26T05:33:00;11.00;;;8.50;;
30370;SDS011;17164;48.590;11.410;2023-06-26T05:35:30;13.60;;;8.83;;
30370;SDS011;17164;48.590;11.410;2023-06-26T05:37:56;13.37;;;9.57;;
30370;SDS011;17164;48.590;11.410;2023-06-26T05:40:23;16.37;;;9.23;;
30370;SDS011;17164;48.590;11.410;2023-06-26T05:42:50;15.37;;;10.87;;
30370;SDS011;17164;48.590;11.410;2023-06-26T05:45:15;14.80;;;10.10;;
30370;SDS011;17164;48.590;11.410;2023-06-26T05:47:41;16.80;;;9.90;;
30370;SDS011;17164;48.590;11.410;2023-06-26T05:50:09;12.50;;;9.30;;
30370;SDS011;17164;48.590;11.410;2023-06-26T05:52:36;12.80;;;9.50;;
30370;SDS011;17164;48.590;11.410;2023-06-26T05:55:03;15.83;;;10.07;;
30370;SDS011;17164;48.590;11.410;2023-06-26T05:57:30;12.93;;;9.23;;
30370;SDS011;17164;48.590;11.410;2023-06-26T05:59:56;13.50;;;10.13;;
30370;SDS011;17164;48.590;11.410;2023-06-26T06:02:21;11.80;;;8.53;;
30370;SDS011;17164;48.590;11.410;2023-06-26T06:04:47;15.83;;;8.77;;
30370;SDS011;17164;48.590;11.410;2023-06-26T06:07:13;13.67;;;9.37;;
30370;SDS011;17164;48.590;11.410;2023-06-26T06:09:39;12.67;;;9.27;;
30370;SDS011;17164;48.590;11.410;2023-06-26T06:12:05;15.53;;;9.70;;
30370;SDS011;17164;48.590;11.410;2023-06-26T06:14:32;14.17;;;9.80;;
30370;SDS011;17164;48.590;11.410;2023-06-26T06:16:58;12.93;;;8.47;;
30370;SDS011;17164;48.590;11.410;2023-06-26T06:19:23;12.07;;;8.90;;
30370;SDS011;17164;48.590;11.410;2023-06-26T06:21:49;13.43;;;9.03;;
30370;SDS011;17164;48.590;11.410;2023-06-26T06:24:15;12.30;;;8.33;;
30370;SDS011;17164;48.590;11.410;2023-06-26T06:26:40;11.67;;;8.50;;
30370;SDS011;17164;48.590;11.410;2023-06-26T06:29:06;13.73;;;8.87;;
30370;SDS011;17164;48.590;11.410;2023-06-26T06:31:31;12.90;;;8.60;;
30370;SDS011;17164;48.590;11.410;2023-06-26T06:33:57;12.73;;;7.83;;
30370;SDS011;17164;48.590;11.410;2023-06-26T06:36:23;11.87;;;8.43;;
30370;SDS011;17164;48.590;11.410;2023-06-26T06:38:48;10.10;;;8.13;;
30370;SDS011;17164;48.590;11.410;2023-06-26T06:41:14;14.40;;;8.70;;
30370;SDS011;17164;48.590;11.410;2023-06-26T06:43:40;10.33;;;7.17;;
30370;SDS011;17164;48.590;11.410;2023-06-26T06:46:06;11.83;;;8.23;;
30370;SDS011;17164;48.590;11.410;2023-06-26T06:48:31;10.73;;;7.27;;
30370;SDS011;17164;48.590;11.410;2023-06-26T06:50:57;12.07;;;7.57;;
30370;SDS011;17164;48.590;11.410;2023-06-26T06:53:23;12.77;;;7.87;;
30370;SDS011;17164;48.590;11.410;2023-06-26T06:55:49;12.13;;;7.83;;
30370;SDS011;17164;48.590;11.410;2023-06-26T06:58:15;14.63;;;7.13;;
30370;SDS011;17164;48.590;11.410;2023-06-26T07:00:42;9.93;;;6.57;;
30370;SDS011;17164;48.590;11.410;2023-06-26T07:03:08;8.20;;;6.37;;
30370;SDS011;17164;48.590;11.410;2023-06-26T07:05:35;8.27;;;6.47;;
30370;SDS011;17164;48.590;11.410;2023-06-26T07:08:01;9.13;;;6.77;;
30370;SDS011;17164;48.590;11.410;2023-06-26T07:10:26;10.93;;;7.70;;
30370;SDS011;17164;48.590;11.410;2023-06-26T07:12:52;9.60;;;6.33;;
30370;SDS011;17164;48.590;11.410;2023-06-26T07:15:17;8.87;;;6.40;;
30370;SDS011;17164;48.590;11.410;2023-06-26T07:17:43;8.23;;;6.37;;
30370;SDS011;17164;48.590;11.410;2023-06-26T07:20:09;10.40;;;7.00;;
30370;SDS011;17164;48.590;11.410;2023-06-26T07:22:40;9.20;;;6.60;;
30370;SDS011;17164;48.590;11.410;2023-06-26T07:25:05;8.47;;;6.43;;
30370;SDS011;17164;48.590;11.410;2023-06-26T07:27:34;8.23;;;6.23;;
30370;SDS011;17164;48.590;11.410;2023-06-26T07:30:03;10.10;;;6.60;;
30370;SDS011;17164;48.590;11.410;2023-06-26T07:32:29;9.75;;;7.15;;
30370;SDS011;17164;48.590;11.410;2023-06-26T07:34:55;9.43;;;6.53;;
30370;SDS011;17164;48.590;11.410;2023-06-26T07:37:21;9.83;;;7.13;;
30370;SDS011;17164;48.590;11.410;2023-06-26T07:39:47;9.07;;;6.90;;
30370;SDS011;17164;48.590;11.410;2023-06-26T07:42:13;10.73;;;7.13;;
30370;SDS011;17164;48.590;11.410;2023-06-26T07:44:39;9.27;;;6.97;;
30370;SDS011;17164;48.590;11.410;2023-06-26T07:47:06;12.27;;;6.87;;
30370;SDS011;17164;48.590;11.410;2023-06-26T07:49:32;9.47;;;6.77;;
30370;SDS011;17164;48.590;11.410;2023-06-26T07:51:57;9.47;;;6.90;;
30370;SDS011;17164;48.590;11.410;2023-06-26T07:54:23;12.63;;;7.27;;
30370;SDS011;17164;48.590;11.410;2023-06-26T07:56:55;10.87;;;6.50;;
30370;SDS011;17164;48.590;11.410;2023-06-26T07:59:22;10.27;;;6.33;;
30370;SDS011;17164;48.590;11.410;2023-06-26T08:01:49;8.50;;;6.50;;
30370;SDS011;17164;48.590;11.410;2023-06-26T08:04:17;9.37;;;7.07;;
30370;SDS011;17164;48.590;11.410;2023-06-26T08:06:43;8.50;;;6.40;;
30370;SDS011;17164;48.590;11.410;2023-06-26T08:09:09;9.90;;;6.83;;
30370;SDS011;17164;48.590;11.410;2023-06-26T08:11:35;10.43;;;7.30;;
30370;SDS011;17164;48.590;11.410;2023-06-26T08:14:00;9.30;;;6.80;;
30370;SDS011;17164;48.590;11.410;2023-06-26T08:16:26;10.90;;;8.13;;
30370;SDS011;17164;48.590;11.410;2023-06-26T08:18:52;9.73;;;7.30;;
30370;SDS011;17164;48.590;11.410;2023-06-26T08:21:17;12.03;;;7.77;;
30370;SDS011;17164;48.590;11.410;2023-06-26T08:23:43;9.43;;;7.33;;
30370;SDS011;17164;48.590;11.410;2023-06-26T08:26:08;11.43;;;7.13;;
30370;SDS011;17164;48.590;11.410;2023-06-26T08:28:34;10.23;;;7.83;;
30370;SDS011;17164;48.590;11.410;2023-06-26T08:31:00;10.70;;;7.40;;
30370;SDS011;17164;48.590;11.410;2023-06-26T08:33:26;10.70;;;7.97;;
30370;SDS011;17164;48.590;11.410;2023-06-26T08:35:51;10.50;;;7.37;;
30370;SDS011;17164;48.590;11.410;2023-06-26T08:38:17;8.77;;;7.17;;
30370;SDS011;17164;48.590;11.410;2023-06-26T08:40:43;13.43;;;7.47;;
30370;SDS011;17164;48.590;11.410;2023-06-26T08:43:09;9.27;;;7.10;;
30370;SDS011;17164;48.590;11.410;2023-06-26T08:45:35;9.33;;;6.30;;
30370;SDS011;17164;48.590;11.410;2023-06-26T08:48:00;8.43;;;7.00;;
30370;SDS011;17164;48.590;11.410;2023-06-26T08:50:30;9.43;;;6.03;;
30370;SDS011;17164;48.590;11.410;2023-06-26T08:53:06;10.53;;;6.57;;
30370;SDS011;17164;48.590;11.410;2023-06-26T08:55:51;9.47;;;6.73;;
30370;SDS011;17164;48.590;11.410;2023-06-26T08:58:18;8.23;;;6.07;;
30370;SDS011;17164;48.590;11.410;2023-06-26T09:00:44;7.80;;;6.20;;
30370;SDS011;17164;48.590;11.410;2023-06-26T09:03:10;9.00;;;6.33;;
30370;SDS011;17164;48.590;11.410;2023-06-26T09:05:37;8.50;;;6.37;;
30370;SDS011;17164;48.590;11.410;2023-06-26T09:08:03;8.43;;;6.40;;
30370;SDS011;17164;48.590;11.410;2023-06-26T09:10:29;9.00;;;7.03;;
30370;SDS011;17164;48.590;11.410;2023-06-26T09:12:55;8.20;;;6.00;;
30370;SDS011;17164;48.590;11.410;2023-06-26T09:15:22;8.97;;;6.13;;
30370;SDS011;17164;48.590;11.410;2023-06-26T09:17:48;7.70;;;5.53;;
30370;SDS011;17164;48.590;11.410;2023-06-26T09:20:14;14.77;;;6.70;;
30370;SDS011;17164;48.590;11.410;2023-06-26T09:22:41;8.43;;;5.80;;
30370;SDS011;17164;48.590;11.410;2023-06-26T09:25:08;8.40;;;6.33;;
30370;SDS011;17164;48.590;11.410;2023-06-26T09:27:35;10.23;;;6.27;;
30370;SDS011;17164;48.590;11.410;2023-06-26T09:30:02;10.07;;;6.20;;
30370;SDS011;17164;48.590;11.410;2023-06-26T09:32:28;10.93;;;6.33;;
30370;SDS011;17164;48.590;11.410;2023-06-26T09:34:54;9.63;;;6.50;;
30370;SDS011;17164;48.590;11.410;2023-06-26T09:37:25;7.80;;;6.00;;
30370;SDS011;17164;48.590;11.410;2023-06-26T09:39:51;9.10;;;6.23;;
30370;SDS011;17164;48.590;11.410;2023-06-26T09:42:17;8.70;;;5.47;;
30370;SDS011;17164;48.590;11.410;2023-06-26T09:44:44;7.10;;;5.83;;
30370;SDS011;17164;48.590;11.410;2023-06-26T09:47:11;7.63;;;5.90;;
30370;SDS011;17164;48.590;11.410;2023-06-26T09:49:40;8.13;;;5.50;;
30370;SDS011;17164;48.590;11.410;2023-06-26T09:52:07;8.60;;;5.73;;
30370;SDS011;17164;48.590;11.410;2023-06-26T09:54:33;7.37;;;5.20;;
30370;SDS011;17164;48.590;11.410;2023-06-26T09:57:07;8.77;;;5.10;;
30370;SDS011;17164;48.590;11.410;2023-06-26T09:59:36;7.17;;;5.37;;
30370;SDS011;17164;48.590;11.410;2023-06-26T10:02:02;6.27;;;5.23;;
30370;SDS011;17164;48.590;11.410;2023-06-26T10:04:28;6.63;;;5.40;;
30370;SDS011;17164;48.590;11.410;2023-06-26T10:06:54;7.97;;;5.33;;
30370;SDS011;17164;48.590;11.410;2023-06-26T10:09:22;8.23;;;5.30;;
30370;SDS011;17164;48.590;11.410;2023-06-26T10:14:31;7.67;;;5.47;;
30370;SDS011;17164;48.590;11.410;2023-06-26T10:17:03;7.90;;;5.27;;
30370;SDS011;17164;48.590;11.410;2023-06-26T10:19:31;5.90;;;4.80;;
30370;SDS011;17164;48.590;11.410;2023-06-26T10:21:58;7.07;;;4.90;;
30370;SDS011;17164;48.590;11.410;2023-06-26T10:24:25;7.87;;;4.87;;
30370;SDS011;17164;48.590;11.410;2023-06-26T10:26:55;6.90;;;4.70;;
30370;SDS011;17164;48.590;11.410;2023-06-26T10:29:49;9.40;;;4.60;;
30370;SDS011;17164;48.590;11.410;2023-06-26T10:32:21;5.73;;;4.43;;
30370;SDS011;17164;48.590;11.410;2023-06-26T10:34:50;6.93;;;5.07;;
30370;SDS011;17164;48.590;11.410;2023-06-26T10:37:16;11.70;;;4.50;;
30370;SDS011;17164;48.590;11.410;2023-06-26T10:39:45;8.57;;;4.83;;
30370;SDS011;17164;48.590;11.410;2023-06-26T10:42:14;9.10;;;4.37;;
30370;SDS011;17164;48.590;11.410;2023-06-26T10:44:41;6.50;;;4.70;;
30370;SDS011;17164;48.590;11.410;2023-06-26T10:47:08;6.73;;;4.50;;
30370;SDS011;17164;48.590;11.410;2023-06-26T10:49:35;7.70;;;4.33;;
30370;SDS011;17164;48.590;11.410;2023-06-26T10:52:04;6.00;;;4.60;;
30370;SDS011;17164;48.590;11.410;2023-06-26T10:54:30;6.20;;;4.10;;
30370;SDS011;17164;48.590;11.410;2023-06-26T10:56:57;5.90;;;4.10;;
30370;SDS011;17164;48.590;11.410;2023-06-26T10:59:26;6.63;;;4.53;;
30370;SDS011;17164;48.590;11.410;2023-06-26T11:07:19;6.60;;;4.07;;
30370;SDS011;17164;48.590;11.410;2023-06-26T11:12:41;5.90;;;4.07;;
30370;SDS011;17164;48.590;11.410;2023-06-26T11:15:08;5.13;;;3.87;;
30370;SDS011;17164;48.590;11.410;2023-06-26T11:17:35;5.80;;;4.60;;
30370;SDS011;17164;48.590;11.410;2023-06-26T11:20:02;6.13;;;4.27;;
30370;SDS011;17164;48.590;11.410;2023-06-26T11:22:35;5.90;;;4.30;;
30370;SDS011;17164;48.590;11.410;2023-06-26T11:25:02;5.80;;;4.30;;
30370;SDS011;17164;48.590;11.410;2023-06-26T11:29:57;7.17;;;4.90;;
30370;SDS011;17164;48.590;11.410;2023-06-26T11:32:23;7.50;;;4.60;;
30370;SDS011;17164;48.590;11.410;2023-06-26T11:34:52;6.80;;;4.37;;
30370;SDS011;17164;48.590;11.410;2023-06-26T11:37:19;5.97;;;4.47;;
30370;SDS011;17164;48.590;11.410;2023-06-26T11:39:45;7.57;;;4.77;;
30370;SDS011;17164;48.590;11.410;2023-06-26T11:42:11;7.10;;;4.67;;
30370;SDS011;17164;48.590;11.410;2023-06-26T11:44:40;7.37;;;4.80;;
30370;SDS011;17164;48.590;11.410;2023-06-26T11:47:07;5.63;;;4.10;;
30370;SDS011;17164;48.590;11.410;2023-06-26T11:49:37;7.90;;;4.50;;
30370;SDS011;17164;48.590;11.410;2023-06-26T11:52:02;6.67;;;4.20;;
30370;SDS011;17164;48.590;11.410;2023-06-26T11:54:29;5.83;;;4.70;;
30370;SDS011;17164;48.590;11.410;2023-06-26T11:56:55;6.93;;;4.60;;
30370;SDS011;17164;48.590;11.410;2023-06-26T11:59:22;7.47;;;4.50;;
30370;SDS011;17164;48.590;11.410;2023-06-26T12:01:49;6.17;;;4.17;;
30370;SDS011;17164;48.590;11.410;2023-06-26T12:04:17;5.07;;;4.03;;
30370;SDS011;17164;48.590;11.410;2023-06-26T12:06:46;7.27;;;4.30;;
30370;SDS011;17164;48.590;11.410;2023-06-26T12:09:13;7.23;;;4.67;;
30370;SDS011;17164;48.590;11.410;2023-06-26T12:11:43;11.00;;;4.73;;
30370;SDS011;17164;48.590;11.410;2023-06-26T12:14:10;6.13;;;3.80;;
30370;SDS011;17164;48.590;11.410;2023-06-26T12:16:36;7.53;;;4.60;;
30370;SDS011;17164;48.590;11.410;2023-06-26T12:19:03;5.97;;;4.40;;
30370;SDS011;17164;48.590;11.410;2023-06-26T12:24:01;6.43;;;4.43;;
30370;SDS011;17164;48.590;11.410;2023-06-26T12:26:28;6.53;;;4.67;;
30370;SDS011;17164;48.590;11.410;2023-06-26T12:29:01;9.00;;;4.87;;
30370;SDS011;17164;48.590;11.410;2023-06-26T12:31:27;8.47;;;4.63;;
30370;SDS011;17164;48.590;11.410;2023-06-26T12:33:53;5.73;;;4.40;;
30370;SDS011;17164;48.590;11.410;2023-06-26T12:36:19;7.27;;;4.70;;
30370;SDS011;17164;48.590;11.410;2023-06-26T12:38:45;8.53;;;4.83;;
30370;SDS011;17164;48.590;11.410;2023-06-26T12:41:12;10.23;;;4.57;;
30370;SDS011;17164;48.590;11.410;2023-06-26T12:43:39;8.13;;;4.23;;
30370;SDS011;17164;48.590;11.410;2023-06-26T12:46:05;5.93;;;4.70;;
30370;SDS011;17164;48.590;11.410;2023-06-26T12:51:07;7.73;;;4.57;;
30370;SDS011;17164;48.590;11.410;2023-06-26T12:53:34;9.07;;;4.67;;
30370;SDS011;17164;48.590;11.410;2023-06-26T12:56:00;5.50;;;4.17;;
30370;SDS011;17164;48.590;11.410;2023-06-26T12:58:26;7.30;;;3.97;;
30370;SDS011;17164;48.590;11.410;2023-06-26T13:00:51;5.63;;;3.97;;
30370;SDS011;17164;48.590;11.410;2023-06-26T13:03:18;6.30;;;4.00;;
30370;SDS011;17164;48.590;11.410;2023-06-26T13:05:45;6.23;;;4.33;;
30370;SDS011;17164;48.590;11.410;2023-06-26T13:08:12;7.37;;;4.33;;
30370;SDS011;17164;48.590;11.410;2023-06-26T13:10:37;9.13;;;4.50;;
30370;SDS011;17164;48.590;11.410;2023-06-26T13:13:04;6.73;;;4.03;;
30370;SDS011;17164;48.590;11.410;2023-06-26T13:15:30;5.70;;;4.20;;
30370;SDS011;17164;48.590;11.410;2023-06-26T13:17:56;7.77;;;4.10;;
30370;SDS011;17164;48.590;11.410;2023-06-26T13:20:21;6.20;;;4.20;;
30370;SDS011;17164;48.590;11.410;2023-06-26T13:22:47;6.83;;;3.90;;
30370;SDS011;17164;48.590;11.410;2023-06-26T13:25:12;5.47;;;4.13;;
30370;SDS011;17164;48.590;11.410;2023-06-26T13:27:38;7.00;;;4.10;;
30370;SDS011;17164;48.590;11.410;2023-06-26T13:30:04;6.93;;;3.90;;
30370;SDS011;17164;48.590;11.410;2023-06-26T13:32:30;6.83;;;4.10;;
30370;SDS011;17164;48.590;11.410;2023-06-26T13:34:55;6.50;;;4.43;;
30370;SDS011;17164;48.590;11.410;2023-06-26T13:37:22;7.50;;;4.50;;
30370;SDS011;17164;48.590;11.410;2023-06-26T13:39:48;7.90;;;4.07;;
30370;SDS011;17164;48.590;11.410;2023-06-26T13:42:15;5.87;;;4.37;;
30370;SDS011;17164;48.590;11.410;2023-06-26T13:44:41;5.60;;;4.30;;
30370;SDS011;17164;48.590;11.410;2023-06-26T13:47:07;5.70;;;4.37;;
30370;SDS011;17164;48.590;11.410;2023-06-26T13:49:33;5.40;;;4.40;;
30370;SDS011;17164;48.590;11.410;2023-06-26T13:51:58;5.80;;;3.97;;
30370;SDS011;17164;48.590;11.410;2023-06-26T13:54:24;6.57;;;4.63;;
30370;SDS011;17164;48.590;11.410;2023-06-26T13:56:49;6.77;;;4.83;;
30370;SDS011;17164;48.590;11.410;2023-06-26T13:59:15;7.03;;;4.60;;
30370;SDS011;17164;48.590;11.410;2023-06-26T14:01:40;5.70;;;4.20;;
30370;SDS011;17164;48.590;11.410;2023-06-26T14:04:08;8.10;;;4.07;;
30370;SDS011;17164;48.590;11.410;2023-06-26T14:06:34;6.20;;;4.63;;
30370;SDS011;17164;48.590;11.410;2023-06-26T14:09:00;5.67;;;4.37;;
30370;SDS011;17164;48.590;11.410;2023-06-26T14:11:25;8.43;;;4.53;;
30370;SDS011;17164;48.590;11.410;2023-06-26T14:13:51;6.83;;;4.10;;
30370;SDS011;17164;48.590;11.410;2023-06-26T14:16:17;8.40;;;4.33;;
30370;SDS011;17164;48.590;11.410;2023-06-26T14:18:43;6.60;;;4.20;;
30370;SDS011;17164;48.590;11.410;2023-06-26T14:21:09;5.70;;;4.20;;
30370;SDS011;17164;48.590;11.410;2023-06-26T14:23:35;5.60;;;4.13;;
30370;SDS011;17164;48.590;11.410;2023-06-26T14:26:00;8.03;;;4.27;;
30370;SDS011;17164;48.590;11.410;2023-06-26T14:28:26;8.33;;;4.00;;
30370;SDS011;17164;48.590;11.410;2023-06-26T14:30:51;6.17;;;4.70;;
30370;SDS011;17164;48.590;11.410;2023-06-26T14:33:17;5.63;;;4.10;;
30370;SDS011;17164;48.590;11.410;2023-06-26T14:35:43;9.43;;;4.67;;
30370;SDS011;17164;48.590;11.410;2023-06-26T14:38:08;4.80;;;3.77;;
30370;SDS011;17164;48.590;11.410;2023-06-26T14:40:34;8.17;;;4.80;;
30370;SDS011;17164;48.590;11.410;2023-06-26T14:43:00;6.27;;;4.63;;
30370;SDS011;17164;48.590;11.410;2023-06-26T14:45:26;6.97;;;4.67;;
30370;SDS011;17164;48.590;11.410;2023-06-26T14:47:51;6.17;;;5.10;;